Latest Weather Observations for Cloncurry

IDQ60801

Issued at 9:22 am EST Wednesday 16 January 2019 (issued every 10 minutes, with the page automatically refreshed every 10 minutes)

About weather observations | Map of weather stations | Latest weather observations for QLD | Other Formats
Station Details ID: 029141 Name: CLONCURRY AIRPORT Lat: -20.67 Lon: 140.50 Height: 186.0 m
Data from the previous 72 hours. | See also: Recent months at Cloncurry
Date/Time
EST
Temp
°C
App
Temp
°C
Dew
Point
°C
Rel
Hum
%
Delta-T
°C
Wind Press
QNH
hPa
Press
MSL
hPa
Rain since
9am
mm
Dir  Spd
km/h
Gust
km/h
Spd
kts
Gust
kts
16/09:00am 32.2 29.8 19.1 45 8.6 N 30 39 16 21 1011.5 1010.1 0.0
16/08:30am 30.9 28.6 19.3 50 7.6 N 30 37 16 20 1011.7 1010.3 0.0
16/08:00am 31.0 28.2 19.4 50 7.6 NNE 33 43 18 23 1011.6 1010.2 0.0
16/07:30am 30.7 28.8 19.4 51 7.4 NNE 28 41 15 22 1011.5 1010.1 0.0
16/07:00am 30.4 28.6 18.8 50 7.6 NNE 26 33 14 18 1011.0 1009.6 0.0
16/06:30am 30.1 28.6 18.5 49 7.5 NNE 24 32 13 17 1010.3 1008.8 0.0
16/06:00am 30.1 27.7 18.2 49 7.7 NNE 28 37 15 20 1009.4 1007.9 0.0
16/05:30am 30.3 27.4 17.0 44 8.4 NNE 28 39 15 21 1008.8 1007.3 0.0
16/05:00am 30.4 27.3 10.4 29 11.5 ENE 17 22 9 12 1008.4 1006.9 0.0
16/04:30am 30.8 28.1 10.2 28 11.8 E 15 17 8 9 1007.7 1006.3 0.0
16/04:00am 31.4 28.3 10.2 27 12.2 E 17 20 9 11 1007.5 1006.1 0.0
16/03:30am 31.6 28.7 9.8 26 12.5 NE 15 20 8 11 1007.5 1006.1 0.0
16/03:00am 32.7 28.4 10.7 26 12.9 ESE 24 32 13 17 1007.2 1005.8 0.0
16/02:30am 33.1 28.9 9.8 24 13.4 ESE 22 30 12 16 1007.3 1005.9 0.0
16/02:00am 33.3 29.0 9.4 23 13.7 ESE 22 30 12 16 1007.2 1005.8 0.0
16/01:30am 33.1 30.5 9.2 23 13.6 E 13 17 7 9 1007.2 1005.8 0.0
16/01:00am 32.9 31.4 9.0 23 13.6 NE 7 11 4 6 1007.3 1005.9 0.0
16/12:30am 33.6 31.5 8.3 21 14.3 NE 9 13 5 7 1007.5 1006.1 0.0
16/12:00am 34.3 31.0 8.1 20 14.8 ENE 15 20 8 11 1007.6 1006.2 0.0
 
Date/Time
EST
Temp
°C
App
Temp
°C
Dew
Point
°C
Rel
Hum
%
Delta-T
°C
Wind Press
QNH
hPa
Press
MSL
hPa
Rain since
9am
mm
Dir  Spd
km/h
Gust
km/h
Spd
kts
Gust
kts
15/11:30pm 33.9 31.3 7.8 20 14.6 NE 11 15 6 8 1007.7 1006.3 0.0
15/11:00pm 34.5 31.8 7.5 19 15.1 E 11 13 6 7 1007.6 1006.2 0.0
15/10:30pm 35.5 32.9 7.6 18 15.7 E 11 15 6 8 1007.6 1006.2 0.0
15/10:00pm 36.3 32.8 7.4 17 16.3 E 15 20 8 11 1007.3 1005.9 0.0
15/09:30pm 36.8 33.1 7.8 17 16.5 E 17 22 9 12 1007.0 1005.6 0.0
15/09:00pm 37.4 33.0 7.3 16 17.1 E 20 24 11 13 1006.9 1005.5 0.0
15/08:30pm 38.0 34.1 6.9 15 17.5 E 17 20 9 11 1006.6 1005.2 0.0
15/08:00pm 38.6 33.8 7.4 15 17.8 ESE 22 30 12 16 1006.1 1004.7 0.0
15/07:30pm 38.9 34.8 8.5 16 17.6 SE 20 28 11 15 1006.0 1004.6 0.0
15/07:00pm 39.4 35.2 9.8 17 17.6 ESE 22 30 12 16 1005.7 1004.3 0.0
15/06:30pm 39.3 35.7 9.8 17 17.4 ENE 19 26 10 14 1005.4 1003.9 0.0
15/06:00pm 39.6 35.6 9.1 16 17.9 ENE 20 33 11 18 1005.2 1003.7 0.0
15/05:30pm 39.4 36.3 8.9 16 17.8 SE 15 22 8 12 1005.1 1003.6 0.0
15/05:00pm 39.3 37.4 8.9 16 17.8 SE 9 20 5 11 1005.1 1003.6 0.0
15/04:30pm 39.8 36.9 11.0 18 17.4 NE 17 22 9 12 1005.1 1003.6 0.0
15/04:00pm 40.0 37.7 10.3 17 17.8 ESE 13 28 7 15 1005.4 1003.9 0.0
15/03:30pm 39.2 37.8 12.1 20 16.6 SSW 11 17 6 9 1005.9 1004.5 0.0
15/03:00pm 39.1 37.5 12.8 21 16.3 E 13 32 7 17 1006.5 1005.1 0.0
15/02:30pm 39.6 38.9 13.2 21 16.4 SE 9 15 5 8 1006.9 1005.5 0.0
15/02:00pm 37.8 36.7 13.1 23 15.3 ESE 11 20 6 11 1007.6 1006.2 0.0
15/01:30pm 38.3 37.9 14.2 24 15.1 NNW 9 20 5 11 1008.4 1006.9 0.0
15/01:00pm 37.5 37.5 15.3 26 14.1 W 9 17 5 9 1009.0 1007.5 0.0
15/12:30pm 36.2 36.8 15.9 30 12.9 NNW 7 13 4 7 1009.6 1008.1 0.0
15/12:00pm 36.4 35.0 16.5 30 12.8 N 19 35 10 19 1010.3 1008.8 0.0
15/11:30am 34.6 33.5 16.4 33 11.6 N 17 26 9 14 1010.8 1009.4 0.0
15/11:00am 35.5 34.4 17.2 33 11.9 N 19 26 10 14 1011.2 1009.8 0.0
15/10:30am 33.8 32.8 17.5 38 10.5 N 19 28 10 15 1011.4 1010.0 0.0
15/10:00am 33.1 32.5 18.5 42 9.6 N 19 33 10 18 1011.8 1010.4 0.0
15/09:30am 33.1 32.2 18.1 41 9.8 N 20 28 11 15 1012.1 1010.7 0.0
15/09:00am 32.2 31.0 18.4 44 9.0 N 22 33 12 18 1012.1 1010.7 0.0
15/08:30am 32.0 30.3 18.9 45 8.6 N 26 32 14 17 1012.0 1010.6 0.0
15/08:00am 31.1 29.8 19.1 48 7.9 N 24 33 13 18 1011.8 1010.4 0.0
15/07:30am 30.7 30.2 20.0 52 7.1 NNE 22 32 12 17 1011.7 1010.3 0.0
15/07:00am 29.8 29.2 19.8 55 6.6 N 22 32 12 17 1011.4 1010.0 0.0
15/06:30am 29.5 28.9 20.4 58 6.1 NNE 24 32 13 17 1010.9 1009.5 0.0
15/06:00am 29.5 27.9 20.1 57 6.2 NNE 28 39 15 21 1010.2 1008.7 0.0
15/05:30am 29.9 28.0 19.3 53 6.9 NNE 28 41 15 22 1009.9 1008.4 0.0
15/05:00am 30.3 28.6 18.1 48 7.9 NNE 24 32 13 17 1009.4 1007.9 0.0
15/04:30am 30.7 29.2 16.7 43 8.9 NNE 20 28 11 15 1008.9 1007.4 0.0
15/04:00am 31.1 28.7 15.5 39 9.7 NNE 22 30 12 16 1008.6 1007.1 0.0
15/03:30am 31.9 28.7 13.2 32 11.3 NNE 22 30 12 16 1008.4 1006.9 0.0
15/03:00am 32.1 29.4 10.2 26 12.7 ENE 15 20 8 11 1007.8 1006.4 0.0
15/02:30am 32.8 30.1 10.2 25 13.1 E 15 20 8 11 1008.0 1006.5 0.0
15/02:00am 33.7 29.7 10.3 24 13.6 E 22 28 12 15 1008.0 1006.5 0.0
15/01:30am 33.6 30.2 9.0 22 14.0 NE 17 22 9 12 1008.3 1006.8 0.0
15/01:00am 34.2 29.2 9.4 22 14.3 ESE 26 35 14 19 1008.0 1006.5 0.0
15/12:30am 34.3 29.5 8.8 21 14.5 ESE 24 32 13 17 1008.0 1006.5 0.0
15/12:00am 34.4 29.8 8.2 20 14.8 ESE 22 28 12 15 1008.0 1006.5 0.0
 
Date/Time
EST
Temp
°C
App
Temp
°C
Dew
Point
°C
Rel
Hum
%
Delta-T
°C
Wind Press
QNH
hPa
Press
MSL
hPa
Rain since
9am
mm
Dir  Spd
km/h
Gust
km/h
Spd
kts
Gust
kts
14/11:30pm 34.7 30.7 8.4 20 14.9 ESE 19 24 10 13 1007.8 1006.4 0.0
14/11:00pm 34.3 31.4 8.1 20 14.8 ESE 13 15 7 8 1007.8 1006.4 0.0
14/10:30pm 34.8 32.8 8.5 20 15.0 ESE 9 13 5 7 1007.5 1006.1 0.0
14/10:00pm 35.6 33.0 9.2 20 15.3 ESE 13 15 7 8 1007.2 1005.8 0.0
14/09:30pm 36.1 33.4 8.8 19 15.7 E 13 15 7 8 1007.1 1005.7 0.0
14/09:00pm 36.6 34.1 8.4 18 16.2 E 11 13 6 7 1006.8 1005.4 0.0
14/08:30pm 37.5 33.9 8.3 17 16.8 ESE 17 20 9 11 1006.7 1005.3 0.0
14/08:00pm 37.9 34.1 7.7 16 17.3 ESE 17 20 9 11 1006.4 1005.0 0.0
14/07:30pm 38.5 34.3 8.2 16 17.4 ESE 20 26 11 14 1006.1 1004.7 0.0
14/07:00pm 39.1 34.4 7.7 15 18.0 E 22 30 12 16 1005.7 1004.3 0.0
14/06:30pm 39.0 34.9 7.7 15 17.9 SE 19 24 10 13 1005.5 1004.0 0.0
14/06:00pm 39.2 34.8 8.8 16 17.8 ESE 22 30 12 16 1005.3 1003.8 0.0
14/05:30pm 39.0 35.8 8.6 16 17.6 ENE 15 22 8 12 1005.2 1003.7 0.0
14/05:00pm 39.7 35.7 9.2 16 18.0 ESE 20 33 11 18 1005.2 1003.7 0.0
14/04:30pm 40.5 36.4 8.8 15 18.6 ESE 20 37 11 20 1005.2 1003.7 0.0
14/04:00pm 40.0 36.3 9.4 16 18.1 ENE 19 37 10 20 1005.4 1003.9 0.0
14/03:30pm 38.7 33.6 9.3 17 17.2 E 26 35 14 19 1005.8 1004.4 0.0
14/03:00pm 39.8 37.3 11.0 18 17.4 SE 15 30 8 16 1006.3 1004.9 0.0
14/02:30pm 39.4 35.9 12.3 20 16.6 E 22 30 12 16 1006.7 1005.3 0.0
14/02:00pm 39.2 36.6 12.1 20 16.6 E 17 28 9 15 1007.3 1005.9 0.0
14/01:30pm 37.4 34.4 12.1 22 15.3 ESE 19 32 10 17 1007.8 1006.4 0.0
14/01:00pm 37.5 35.5 12.8 22 15.2 N 15 30 8 16 1008.2 1006.7 0.0
14/12:30pm 36.6 34.4 13.4 25 14.3 NNE 17 32 9 17 1008.7 1007.2 0.0
14/12:00pm 36.1 33.6 14.1 26 13.7 E 20 28 11 15 1009.1 1007.6 0.0
14/11:30am 35.0 34.5 14.8 29 12.6 N 11 24 6 13 1009.6 1008.1 0.0
14/11:00am 35.2 32.6 15.0 30 12.7 NE 22 28 12 15 1009.9 1008.4 0.0
14/10:30am 34.4 32.3 15.3 31 12.0 NNE 20 30 11 16 1010.1 1008.6 0.0
14/10:00am 34.0 32.0 15.5 33 11.7 NNE 20 28 11 15 1010.3 1008.8 0.0
14/09:30am 33.9 32.1 15.4 33 11.6 NNE 19 28 10 15 1010.5 1009.1 0.0
14/09:00am 33.4 32.1 14.9 32 11.5 N 15 20 8 11 1010.5 1009.1 0.0
14/08:30am 32.7 31.8 13.8 31 11.6 ENE 11 15 6 8 1010.4 1008.9 0.0
14/08:00am 31.5 30.5 12.3 31 11.4 ENE 9 11 5 6 1010.1 1008.6 0.0
14/07:30am 30.5 29.0 8.3 25 12.3 ENE 6 9 3 5 1009.8 1008.3 0.0
14/07:00am 28.5 27.8 7.1 26 11.6 CALM 0 0 0 0 1009.6 1008.1 0.0
14/06:30am 26.9 26.3 7.4 29 10.5 CALM 0 0 0 0 1009.3 1007.8 0.0
14/06:00am 27.0 25.1 7.5 29 10.5 ENE 7 11 4 6 1008.7 1007.2 0.0
14/05:30am 26.7 25.0 7.7 30 10.2 ENE 6 6 3 3 1008.1 1006.6 0.0
14/05:00am 27.1 26.5 7.5 29 10.6 CALM 0 0 0 0 1007.6 1006.2 0.0
14/04:30am 27.8 25.8 7.1 27 11.1 E 7 9 4 5 1007.3 1005.9 0.0
14/04:00am 28.9 26.2 7.5 26 11.7 E 11 11 6 6 1007.1 1005.7 0.0
14/03:30am 29.9 26.8 7.2 24 12.3 E 13 17 7 9 1007.2 1005.8 0.0
14/03:00am 30.7 27.1 6.6 22 13.1 E 15 19 8 10 1007.2 1005.8 0.0
14/02:30am 31.3 26.7 5.7 20 13.7 E 19 22 10 12 1007.3 1005.9 0.0
14/02:00am 32.0 26.8 5.5 19 14.2 E 22 28 12 15 1007.5 1006.1 0.0
14/01:30am 32.4 27.3 4.2 17 14.8 E 20 24 11 13 1007.8 1006.4 0.0
14/01:00am 33.0 27.6 4.7 17 15.1 ESE 22 28 12 15 1008.1 1006.6 0.0
14/12:30am 33.4 27.7 5.0 17 15.2 ESE 24 32 13 17 1008.5 1007.0 0.0
14/12:00am 34.0 28.2 4.6 16 15.7 E 24 32 13 17 1008.8 1007.3 0.0
 
Date/Time
EST
Temp
°C
App
Temp
°C
Dew
Point
°C
Rel
Hum
%
Delta-T
°C
Wind Press
QNH
hPa
Press
MSL
hPa
Rain since
9am
mm
Dir  Spd
km/h
Gust
km/h
Spd
kts
Gust
kts
13/11:30pm 34.5 28.6 4.1 15 16.1 ESE 24 30 13 16 1008.9 1007.4 0.0
13/11:00pm 34.7 29.6 4.3 15 16.2 ESE 20 30 11 16 1009.0 1007.5 0.0
13/10:30pm 35.0 29.8 3.5 14 16.6 ESE 20 26 11 14 1008.8 1007.3 0.0
13/10:00pm 35.3 30.3 3.8 14 16.7 ESE 19 24 10 13 1008.6 1007.1 0.0
13/09:30pm 35.9 30.6 3.2 13 17.2 ESE 20 26 11 14 1008.3 1006.8 0.0
13/09:00pm 36.5 30.7 2.5 12 17.8 ESE 22 28 12 15 1008.1 1006.6 0.0
13/08:30pm 37.1 31.4 3.0 12 18.0 ESE 22 28 12 15 1007.6 1006.2 0.0
13/08:00pm 37.7 31.1 2.2 11 18.6 ESE 26 33 14 18 1007.4 1006.0 0.0
13/07:30pm 38.4 31.2 2.8 11 18.9 ESE 30 37 16 20 1007.1 1005.7 0.0
13/07:00pm 39.2 32.5 3.4 11 19.3 ESE 28 37 15 20 1006.7 1005.3 0.0
13/06:56pm 39.2 31.7 3.4 11 19.3 E 32 50 17 27 1006.7 1005.3 0.0
13/06:30pm 39.7 32.1 3.7 11 19.5 E 33 48 18 26 1006.3 1004.9 0.0
13/06:00pm 39.9 33.1 5.1 12 19.3 SE 30 43 16 23 1005.9 1004.5 0.0
13/05:43pm 40.5 33.8 5.6 12 19.5 SE 30 48 16 26 1005.7 1004.3 0.0
13/05:30pm 40.6 33.4 5.7 12 19.6 SE 33 48 18 26 1005.8 1004.4 0.0
13/05:00pm 40.7 34.4 5.7 12 19.7 SE 28 50 15 27 1005.7 1004.3 0.0
13/04:59pm 40.7 34.4 5.7 12 19.6 SE 28 50 15 27 1005.7 1004.3 0.0
13/04:30pm 40.5 33.8 5.6 12 19.5 SE 30 43 16 23 1005.8 1004.4 0.0
13/04:00pm 40.1 32.4 5.3 12 19.4 ESE 35 54 19 29 1006.1 1004.7 0.0
13/03:42pm 40.6 34.3 5.7 12 19.6 ESE 28 50 15 27 1006.1 1004.7 0.0
13/03:30pm 40.2 32.5 5.4 12 19.4 E 35 50 19 27 1006.3 1004.9 0.0
13/03:23pm 41.1 34.9 6.0 12 19.8 ESE 28 46 15 25 1006.3 1004.9 0.0
13/03:00pm 39.7 32.2 6.1 13 18.9 ESE 35 48 19 26 1006.9 1005.5 0.0
13/02:32pm 40.7 34.3 6.9 13 19.3 ESE 30 57 16 31 1007.2 1005.8 0.0
13/02:30pm 40.3 33.8 6.6 13 19.1 ESE 30 46 16 25 1007.3 1005.9 0.0
13/02:05pm 39.7 32.7 6.1 13 18.9 ESE 32 50 17 27 1007.8 1006.4 0.0
13/02:00pm 39.6 32.4 6.1 13 18.8 ESE 33 50 18 27 1007.8 1006.4 0.0
13/01:43pm 40.6 34.5 6.8 13 19.2 ESE 28 46 15 25 1008.3 1006.8 0.0
13/01:30pm 39.1 32.0 5.7 13 18.6 ESE 32 43 17 23 1008.5 1007.0 0.0
13/01:20pm 39.9 33.4 6.3 13 18.9 ESE 30 50 16 27 1008.6 1007.1 0.0
13/01:00pm 38.8 32.9 7.5 15 17.9 E 28 54 15 29 1008.9 1007.4 0.0
13/12:30pm 38.2 32.4 8.0 16 17.3 E 28 37 15 20 1009.5 1008.0 0.0
13/12:00pm 37.6 32.2 10.8 20 16.0 E 30 39 16 21 1009.9 1008.4 0.0
13/11:30am 38.1 34.8 12.7 22 15.6 ESE 22 35 12 19 1010.5 1009.1 0.0
13/11:01am 36.8 32.0 11.6 22 15.1 E 28 50 15 27 1010.9 1009.5 0.0
13/11:00am 37.0 32.6 11.8 22 15.2 E 26 50 14 27 1010.9 1009.5 0.0
13/10:30am 35.6 31.6 13.1 25 13.8 E 26 39 14 21 1011.4 1010.0 0.0
13/10:00am 35.8 33.6 16.0 30 12.6 ENE 22 30 12 16 1011.3 1009.9 0.0
13/09:30am 33.6 32.3 18.1 39 10.1 ENE 22 32 12 17 1011.4 1010.0 0.0

Other Formats:

Comma delimited format used in spreadsheet applications
http://www.bom.gov.au/fwo/IDQ60801/IDQ60801.94335.axf

JavaScript Object Notation format (JSON) in row-major order
http://www.bom.gov.au/fwo/IDQ60801/IDQ60801.94335.json